Time;durP1;ratioP1;P1;durP2;ratioP2;P2;SDS_P1;SDS_P2;PMS_P1;PMS_P2;Temp;Humidity;BMP_temperature;BMP_pressure;BME280_temperature;BME280_humidity;BME280_pressure;Samples;Min_cycle;Max_cycle;Signal;HPM_P1;HPM_P2
2022/02/10 00:21:44;;;;;;;4.27;2.70;;;7.80;99.90;;;;;;5000397;28;20168;-77
2022/02/10 00:24:34;;;;;;;3.00;2.70;;;7.80;99.90;;;;;;4998941;28;20195;-78
2022/02/10 00:35:24;;;;;;;2.70;2.50;;;7.90;99.90;;;;;;4997919;28;20206;-77
2022/02/10 00:37:57;;;;;;;2.50;2.30;;;8.00;99.90;;;;;;4997258;28;20234;-78
2022/02/10 00:40:25;;;;;;;2.77;2.47;;;7.90;99.90;;;;;;5013032;28;20183;-76
2022/02/10 00:42:50;;;;;;;2.70;2.10;;;8.00;99.90;;;;;;5012406;28;20180;-77
2022/02/10 00:45:16;;;;;;;2.70;2.00;;;8.10;99.90;;;;;;5014126;28;20186;-79
2022/02/10 00:47:52;;;;;;;2.17;1.87;;;8.00;99.90;;;;;;4996194;28;20238;-78
2022/02/10 00:50:19;;;;;;;2.87;1.97;;;8.00;99.90;;;;;;5013054;28;20190;-78
2022/02/10 00:52:46;;;;;;;1.83;1.70;;;8.00;99.90;;;;;;5013992;28;20218;-78
2022/02/10 00:55:15;;;;;;;2.40;1.73;;;8.10;99.90;;;;;;4994871;28;20269;-79
2022/02/10 00:57:41;;;;;;;2.67;1.53;;;8.00;99.90;;;;;;4997025;28;20677;-79
2022/02/10 01:24:32;;;;;;;1.10;1.00;;;8.30;99.90;;;;;;5001148;28;20218;-77
2022/02/10 01:29:45;;;;;;;1.17;1.00;;;8.30;99.90;;;;;;4999433;28;20590;-79
2022/02/10 01:32:11;;;;;;;0.90;0.90;;;8.30;99.90;;;;;;5014270;28;20206;-80
2022/02/10 01:34:47;;;;;;;0.93;0.90;;;8.20;99.90;;;;;;4997934;28;20204;-76
2022/02/10 01:37:14;;;;;;;1.23;0.87;;;8.20;99.90;;;;;;5015298;28;20187;-78
2022/02/10 01:39:45;;;;;;;1.20;1.10;;;8.10;99.90;;;;;;5000167;28;20230;-77
2022/02/10 02:04:11;;;;;;;4.23;1.50;;;8.10;99.90;;;;;;5003556;28;20242;-78
2022/02/10 02:06:45;;;;;;;2.03;1.30;;;8.00;99.90;;;;;;5003382;28;20188;-78
2022/02/10 02:09:14;;;;;;;2.20;1.73;;;8.00;99.90;;;;;;5001513;28;20568;-78
2022/02/10 02:11:41;;;;;;;2.10;1.73;;;7.90;99.90;;;;;;5017160;28;20734;-78
2022/02/10 02:14:07;;;;;;;2.00;1.77;;;8.00;99.90;;;;;;5016399;28;20184;-79
2022/02/10 02:16:33;;;;;;;1.83;1.70;;;8.00;99.90;;;;;;5019862;28;20208;-79
2022/02/10 02:18:59;;;;;;;3.03;2.17;;;8.20;99.90;;;;;;5016233;28;20201;-79
2022/02/10 02:21:25;;;;;;;2.93;2.53;;;8.20;99.90;;;;;;5003336;28;20739;-81
2022/02/10 02:23:51;;;;;;;2.63;2.40;;;8.20;99.90;;;;;;5000594;28;20180;-78
2022/02/10 02:26:23;;;;;;;3.13;2.20;;;8.20;99.90;;;;;;5019131;28;20278;-80
2022/02/10 02:28:53;;;;;;;2.27;2.07;;;8.10;99.90;;;;;;5009466;28;20292;-79
2022/02/10 02:31:24;;;;;;;2.70;2.20;;;8.10;99.90;;;;;;5001515;28;20183;-75
2022/02/10 03:08:52;;;;;;;1.87;1.73;;;7.70;99.90;;;;;;4999150;28;20778;-80
2022/02/10 03:11:19;;;;;;;1.67;1.57;;;7.60;99.90;;;;;;5000158;28;20247;-79
2022/02/10 03:13:51;;;;;;;1.70;1.60;;;7.60;99.90;;;;;;5018106;28;20184;-78
2022/02/10 03:16:47;;;;;;;1.60;1.50;;;7.60;99.90;;;;;;5001515;28;20210;-76
2022/02/10 04:05:35;;;;;;;2.23;2.00;;;7.10;99.90;;;;;;5002043;28;20665;-79
2022/02/10 04:10:44;;;;;;;4.87;2.23;;;7.10;99.90;;;;;;5002041;28;20218;-78
2022/02/10 04:13:24;;;;;;;2.77;2.03;;;7.10;99.90;;;;;;5001678;28;20197;-78
2022/02/10 04:20:55;;;;;;;2.97;2.33;;;7.10;99.90;;;;;;5000716;28;20180;-78
2022/02/10 04:56:28;;;;;;;4.73;3.47;;;6.70;99.90;;;;;;5002310;28;20206;-80
2022/02/10 04:58:35;;;;;;;3.83;3.37;;;6.70;99.90;;;;;;4992746;28;20211;-79
2022/02/10 05:16:49;;;;;;;6.50;3.87;;;6.60;99.90;;;;;;5001843;28;20204;-78
2022/02/10 05:37:48;;;;;;;6.30;4.13;;;6.20;99.90;;;;;;5019315;28;20274;-79
2022/02/10 05:40:22;;;;;;;4.60;3.67;;;6.20;99.90;;;;;;5017853;28;20186;-79
2022/02/10 05:45:44;;;;;;;4.93;4.10;;;6.30;99.90;;;;;;5021103;28;20202;-79
2022/02/10 05:56:37;;;;;;;5.40;3.90;;;6.10;99.90;;;;;;5008939;28;20215;-77
2022/02/10 05:59:55;;;;;;;4.13;3.73;;;6.10;99.90;;;;;;5002465;28;20216;-78
2022/02/10 06:45:20;;;;;;;7.97;4.90;;;5.90;99.90;;;;;;5000399;28;20179;-80
2022/02/10 06:51:12;;;;;;;5.53;3.93;;;5.90;99.90;;;;;;5004025;28;20183;-80
2022/02/10 07:04:35;;;;;;;5.53;4.17;;;6.00;99.90;;;;;;5000661;28;20712;-79
2022/02/10 07:15:38;;;;;;;7.03;4.50;;;6.20;99.90;;;;;;4998162;28;20681;-77
2022/02/10 07:48:54;;;;;;;7.37;5.00;;;7.30;99.90;;;;;;5006230;28;20207;-77
2022/02/10 07:54:48;;;;;;;5.23;4.33;;;7.30;99.90;;;;;;4972010;28;20207;-77
2022/02/10 07:57:34;;;;;;;8.00;4.87;;;7.30;99.90;;;;;;5014399;28;20196;-77
2022/02/10 08:55:13;;;;;;;6.30;4.33;;;7.90;99.90;;;;;;4992076;28;20273;-78
2022/02/10 09:05:43;;;;;;;8.73;4.87;;;7.90;99.90;;;;;;4998864;28;20234;-79
2022/02/10 09:13:41;;;;;;;8.10;4.83;;;8.00;99.90;;;;;;4997481;28;20188;-78
2022/02/10 09:48:20;;;;;;;7.23;4.90;;;8.70;99.90;;;;;;5005466;28;20250;-84
2022/02/10 09:56:25;;;;;;;7.50;4.90;;;9.20;99.90;;;;;;4999669;28;20206;-81
2022/02/10 10:01:36;;;;;;;7.77;4.60;;;9.30;99.90;;;;;;5000916;28;20183;-84
2022/02/10 10:04:47;;;;;;;7.57;4.80;;;9.20;99.90;;;;;;5011323;28;20179;-78
2022/02/10 10:07:29;;;;;;;6.27;4.67;;;9.10;99.90;;;;;;5001552;28;20188;-80
2022/02/10 10:10:46;;;;;;;5.63;4.40;;;9.10;99.90;;;;;;4984729;28;20188;-79
2022/02/10 10:21:32;;;;;;;7.37;5.00;;;8.90;99.90;;;;;;5006892;28;20266;-80
2022/02/10 10:52:40;;;;;;;6.13;4.77;;;10.00;99.90;;;;;;4999330;28;20191;-80
2022/02/10 10:55:45;;;;;;;9.53;5.77;;;9.90;99.90;;;;;;4994735;28;20199;-77
2022/02/10 10:58:27;;;;;;;7.80;5.13;;;9.70;99.90;;;;;;4981430;28;20599;-79
2022/02/10 11:36:42;;;;;;;9.50;6.43;;;9.00;99.90;;;;;;5005467;28;20207;-80
2022/02/10 14:14:53;;;;;;;5.63;3.20;;;7.30;99.90;;;;;;4993995;28;20547;-81
2022/02/10 14:17:31;;;;;;;4.07;2.80;;;7.30;99.90;;;;;;5011620;28;20212;-82
2022/02/10 14:20:00;;;;;;;3.13;2.30;;;7.30;99.90;;;;;;4996034;28;20181;-82
2022/02/10 14:27:47;;;;;;;4.33;2.90;;;7.20;99.90;;;;;;5002684;28;20206;-81
2022/02/10 14:30:14;;;;;;;4.53;2.73;;;7.10;99.90;;;;;;5012014;28;20188;-81
2022/02/10 14:32:43;;;;;;;5.63;3.30;;;7.10;99.90;;;;;;4993384;28;20246;-79
2022/02/10 14:35:26;;;;;;;4.90;2.40;;;7.10;99.90;;;;;;5012645;28;20191;-79
2022/02/10 15:32:39;;;;;;;2.43;2.13;;;6.80;99.90;;;;;;4999805;28;20188;-79
2022/02/10 15:53:56;;;;;;;3.20;1.70;;;6.50;99.90;;;;;;4993020;28;20192;-79
2022/02/10 15:56:45;;;;;;;2.20;1.40;;;6.50;99.90;;;;;;4990201;28;20196;-79
2022/02/10 16:10:52;;;;;;;4.53;1.87;;;6.40;99.90;;;;;;4986288;28;20303;-78
2022/02/10 16:18:22;;;;;;;1.80;1.37;;;6.20;99.90;;;;;;4988176;28;20199;-79
2022/02/10 16:20:57;;;;;;;2.10;1.70;;;6.20;99.90;;;;;;4984364;28;20180;-78
2022/02/10 16:23:24;;;;;;;4.23;2.10;;;6.10;99.90;;;;;;4984196;28;20191;-77
2022/02/10 16:26:07;;;;;;;4.03;2.40;;;6.10;99.90;;;;;;4993940;28;20179;-80
2022/02/10 16:28:35;;;;;;;2.53;2.27;;;6.10;99.90;;;;;;4991176;28;20235;-80
2022/02/10 16:31:01;;;;;;;2.43;2.00;;;6.00;99.90;;;;;;4987320;28;20184;-80
2022/02/10 16:33:26;;;;;;;1.70;1.60;;;6.10;99.90;;;;;;4986640;28;20219;-80
2022/02/10 16:35:53;;;;;;;2.53;1.43;;;6.10;99.90;;;;;;4981430;28;20327;-79
2022/02/10 16:38:19;;;;;;;1.80;1.20;;;6.10;99.90;;;;;;4984363;28;20700;-78
2022/02/10 16:40:44;;;;;;;1.83;1.40;;;6.00;99.90;;;;;;4987591;28;20656;-78
2022/02/10 16:43:10;;;;;;;3.53;2.80;;;6.00;99.90;;;;;;4990288;28;20180;-77
2022/02/10 16:45:36;;;;;;;2.80;2.07;;;6.10;99.90;;;;;;4982807;28;20191;-77
2022/02/10 16:48:02;;;;;;;1.60;1.30;;;6.00;99.90;;;;;;4993385;28;20331;-77
2022/02/10 16:50:28;;;;;;;2.30;1.50;;;6.00;99.90;;;;;;4985399;28;20289;-77
2022/02/10 16:53:00;;;;;;;2.10;1.70;;;6.00;99.90;;;;;;5006074;28;20689;-77
2022/02/10 16:55:42;;;;;;;2.67;2.00;;;6.00;99.90;;;;;;4985825;28;20208;-79
2022/02/10 16:58:31;;;;;;;2.37;2.13;;;6.00;99.90;;;;;;4982593;28;20204;-77
2022/02/10 17:04:03;;;;;;;1.97;1.33;;;5.90;99.90;;;;;;4995996;28;20195;-80
2022/02/10 17:25:17;;;;;;;1.60;1.20;;;5.90;99.90;;;;;;4994698;28;20258;-78
2022/02/10 17:27:46;;;;;;;3.00;1.30;;;5.90;99.90;;;;;;4995123;28;20266;-79
2022/02/10 17:44:17;;;;;;;1.90;1.70;;;5.90;99.90;;;;;;4996226;28;20294;-78
2022/02/10 17:46:57;;;;;;;2.03;1.80;;;5.80;99.90;;;;;;4998552;28;20173;-80
2022/02/10 17:52:16;;;;;;;4.67;2.93;;;5.90;99.90;;;;;;5000087;28;20206;-79
2022/02/10 17:54:43;;;;;;;2.13;1.80;;;5.90;99.90;;;;;;5012840;28;20186;-79
2022/02/10 17:57:10;;;;;;;2.63;1.73;;;5.90;99.90;;;;;;5003804;28;20969;-79
2022/02/10 17:59:36;;;;;;;2.33;1.40;;;5.90;99.90;;;;;;4997030;28;20279;-79
2022/02/10 18:02:02;;;;;;;1.80;1.40;;;5.90;99.90;;;;;;4996879;28;20192;-78
2022/02/10 18:04:29;;;;;;;1.70;1.60;;;5.90;99.90;;;;;;4998130;28;20212;-78
2022/02/10 18:06:57;;;;;;;1.60;1.50;;;5.90;99.90;;;;;;5011932;28;20215;-78
2022/02/10 18:10:02;;;;;;;2.27;1.70;;;5.80;99.90;;;;;;4996747;28;20212;-78
2022/02/10 18:15:05;;;;;;;3.60;1.50;;;5.80;99.90;;;;;;4991025;28;20345;-77
2022/02/10 18:17:35;;;;;;;2.37;1.47;;;5.80;99.90;;;;;;4992559;28;20203;-79
2022/02/10 18:20:08;;;;;;;2.83;1.53;;;5.80;99.90;;;;;;4998004;28;20188;-79
2022/02/10 18:27:44;;;;;;;2.60;1.57;;;5.90;99.90;;;;;;4996173;28;20242;-79
2022/02/10 18:30:15;;;;;;;2.23;1.87;;;5.80;99.90;;;;;;5012810;28;20230;-79
2022/02/10 19:11:13;;;;;;;2.27;2.07;;;5.70;99.90;;;;;;4994538;28;20175;-76
2022/02/10 19:13:39;;;;;;;3.20;2.30;;;5.70;99.90;;;;;;4993769;28;20180;-77
2022/02/10 19:16:05;;;;;;;4.53;3.10;;;5.70;99.90;;;;;;4993828;28;20259;-79
2022/02/10 19:18:31;;;;;;;3.17;2.00;;;5.80;99.90;;;;;;4995704;28;20704;-78
2022/02/10 19:20:57;;;;;;;2.37;1.93;;;5.80;99.90;;;;;;4996612;28;20309;-79
2022/02/10 19:23:23;;;;;;;3.50;2.20;;;5.80;99.90;;;;;;4996555;28;20203;-78
2022/02/10 19:25:49;;;;;;;4.07;2.20;;;5.80;99.90;;;;;;4995190;28;20212;-78
2022/02/10 19:28:16;;;;;;;4.27;2.70;;;5.70;99.90;;;;;;4995700;28;20299;-78
2022/02/10 19:30:44;;;;;;;6.20;2.50;;;5.70;99.90;;;;;;5012365;28;20237;-79
2022/02/10 19:33:13;;;;;;;3.57;2.37;;;5.70;99.90;;;;;;4995236;28;20184;-78
2022/02/10 19:35:44;;;;;;;3.43;2.37;;;5.80;99.90;;;;;;4996563;28;21199;-79
2022/02/10 19:38:15;;;;;;;2.97;2.40;;;5.70;99.90;;;;;;4996732;28;20200;-80
2022/02/10 19:40:41;;;;;;;3.93;2.60;;;5.70;99.90;;;;;;4994919;28;20169;-81
2022/02/10 19:43:08;;;;;;;2.50;2.30;;;5.70;99.90;;;;;;5012006;28;20203;-79
2022/02/10 19:45:34;;;;;;;2.70;2.37;;;5.60;99.90;;;;;;5010328;28;20669;-80
2022/02/10 19:48:00;;;;;;;4.20;2.40;;;5.70;99.90;;;;;;5011718;28;20231;-78
2022/02/10 19:50:28;;;;;;;4.03;2.43;;;5.60;99.90;;;;;;5003289;28;20227;-79
2022/02/10 19:52:59;;;;;;;3.83;2.70;;;5.70;99.90;;;;;;4995397;28;20180;-80
2022/02/10 19:55:25;;;;;;;6.13;3.00;;;5.70;99.90;;;;;;4989813;28;20188;-80
2022/02/10 19:57:57;;;;;;;5.23;2.60;;;5.70;99.90;;;;;;4998417;28;20251;-79
2022/02/10 20:00:29;;;;;;;4.43;2.83;;;5.60;99.90;;;;;;5014213;28;20744;-80
2022/02/10 20:02:55;;;;;;;4.63;2.50;;;5.50;99.90;;;;;;4992637;28;20202;-78
2022/02/10 20:05:25;;;;;;;2.97;2.50;;;5.50;99.90;;;;;;4989281;28;20245;-77
2022/02/10 20:07:54;;;;;;;3.87;2.07;;;5.50;99.90;;;;;;4993001;28;20730;-81
2022/02/10 20:10:21;;;;;;;2.77;2.47;;;5.50;99.90;;;;;;4996969;28;20698;-78
2022/02/10 20:12:47;;;;;;;3.73;2.37;;;5.50;99.90;;;;;;4989455;28;20258;-77
2022/02/10 20:15:14;;;;;;;3.77;2.53;;;5.40;99.90;;;;;;4993446;28;20179;-79
2022/02/10 20:17:41;;;;;;;2.57;2.37;;;5.40;99.90;;;;;;5012347;28;20207;-79
2022/02/10 20:20:07;;;;;;;3.60;2.50;;;5.40;99.90;;;;;;4998475;28;20188;-79
2022/02/10 20:22:37;;;;;;;4.63;3.43;;;5.40;99.90;;;;;;4998506;28;20199;-79
2022/02/10 20:25:07;;;;;;;2.67;1.70;;;5.40;99.90;;;;;;4996265;28;20179;-80
2022/02/10 20:27:34;;;;;;;4.90;1.53;;;5.30;99.90;;;;;;4995745;28;20685;-78
2022/02/10 20:30:01;;;;;;;3.80;1.50;;;5.30;99.90;;;;;;4995385;28;20673;-78
2022/02/10 20:32:26;;;;;;;2.93;1.40;;;5.30;99.90;;;;;;4996964;28;20183;-78
2022/02/10 20:34:53;;;;;;;2.97;1.30;;;5.20;99.90;;;;;;4995849;28;20172;-78
2022/02/10 20:37:19;;;;;;;4.17;1.37;;;5.20;99.90;;;;;;4999173;28;20196;-78
2022/02/10 20:39:44;;;;;;;1.70;1.07;;;5.30;99.90;;;;;;4997906;28;20176;-79
2022/02/10 20:42:16;;;;;;;2.47;1.30;;;5.20;99.90;;;;;;5012232;28;20401;-78
2022/02/10 20:44:45;;;;;;;1.30;1.20;;;5.20;99.90;;;;;;4995515;28;20170;-78
2022/02/10 20:47:10;;;;;;;7.23;1.53;;;5.10;99.90;;;;;;4997028;28;20179;-80
2022/02/10 20:49:36;;;;;;;1.43;1.33;;;5.10;99.90;;;;;;4998150;28;20198;-79
2022/02/10 20:52:02;;;;;;;1.80;1.00;;;5.10;99.90;;;;;;4997093;28;20310;-79
2022/02/10 20:54:27;;;;;;;1.37;1.10;;;5.10;99.90;;;;;;4998284;28;20192;-79
2022/02/10 20:56:54;;;;;;;1.83;1.10;;;5.10;99.90;;;;;;4996474;28;20207;-79
2022/02/10 20:59:34;;;;;;;2.33;1.53;;;5.10;99.90;;;;;;5012687;28;20496;-77
2022/02/10 21:02:07;;;;;;;2.83;1.30;;;5.20;99.90;;;;;;4996729;28;20309;-78
2022/02/10 21:04:37;;;;;;;2.33;1.13;;;5.10;99.90;;;;;;4998195;28;20168;-79
2022/02/10 21:10:02;;;;;;;3.40;1.37;;;5.00;99.90;;;;;;4995045;28;20696;-80
2022/02/10 21:12:31;;;;;;;1.90;1.27;;;5.00;99.90;;;;;;5018905;28;20206;-75
2022/02/10 21:14:57;;;;;;;3.57;1.70;;;5.00;99.90;;;;;;5015604;28;20190;-79
2022/02/10 21:17:26;;;;;;;1.47;1.27;;;5.00;99.90;;;;;;5002038;28;20215;-78
2022/02/10 21:19:58;;;;;;;1.87;1.40;;;4.90;99.90;;;;;;5000276;28;20203;-77
2022/02/10 21:22:24;;;;;;;3.17;1.50;;;4.90;99.90;;;;;;5018656;28;20247;-78
2022/02/10 21:27:47;;;;;;;5.73;2.47;;;4.90;99.90;;;;;;4996333;28;20203;-78
2022/02/10 21:30:15;;;;;;;4.93;2.10;;;4.90;99.90;;;;;;5019151;28;20204;-78
2022/02/10 21:32:50;;;;;;;2.57;1.80;;;4.80;99.90;;;;;;5000305;28;20172;-80
2022/02/10 21:38:00;;;;;;;1.80;1.43;;;4.90;99.90;;;;;;5003682;28;20207;-77
2022/02/10 21:40:38;;;;;;;5.67;2.50;;;4.90;99.90;;;;;;5019009;28;21413;-78
2022/02/10 21:57:09;;;;;;;1.33;0.90;;;4.80;99.90;;;;;;5004871;28;20278;-77
2022/02/10 22:06:02;;;;;;;4.27;2.03;;;4.70;99.90;;;;;;5001408;28;20214;-80
2022/02/10 22:10:26;;;;;;;1.40;1.30;;;4.80;99.90;;;;;;5001170;28;20275;-78
2022/02/10 22:20:59;;;;;;;2.40;0.97;;;4.70;99.90;;;;;;5001428;28;20179;-78
2022/02/10 22:23:27;;;;;;;1.20;1.10;;;4.80;99.90;;;;;;5013459;28;20192;-78
2022/02/10 22:26:07;;;;;;;1.30;1.20;;;4.80;99.90;;;;;;5013995;28;20712;-78
2022/02/10 22:28:50;;;;;;;1.27;1.17;;;4.80;99.90;;;;;;4997939;28;20570;-77
2022/02/10 22:34:33;;;;;;;1.30;1.00;;;4.80;99.90;;;;;;4999599;28;20275;-79
2022/02/10 22:36:36;;;;;;;2.67;1.50;;;4.80;99.90;;;;;;5000118;28;20342;-80
2022/02/10 22:39:03;;;;;;;2.80;1.43;;;4.90;99.90;;;;;;5001050;28;20211;-78
2022/02/10 22:41:30;;;;;;;2.67;1.63;;;4.90;99.90;;;;;;5015623;28;20188;-78
2022/02/10 22:43:56;;;;;;;1.87;1.27;;;4.90;99.90;;;;;;4999659;28;20176;-78
2022/02/10 22:46:22;;;;;;;2.23;1.50;;;5.00;99.90;;;;;;5016270;28;20216;-78
2022/02/10 22:48:49;;;;;;;2.53;1.50;;;4.90;99.90;;;;;;5017056;28;20198;-78
2022/02/10 22:51:21;;;;;;;1.90;1.27;;;5.00;99.90;;;;;;5015077;28;20191;-78
2022/02/10 22:53:47;;;;;;;1.73;1.00;;;4.90;99.90;;;;;;4998071;28;20262;-79
2022/02/10 22:56:15;;;;;;;2.83;1.30;;;4.90;99.90;;;;;;5001655;28;20398;-79
2022/02/10 22:58:41;;;;;;;2.23;1.00;;;4.90;99.90;;;;;;5002136;28;20207;-79
2022/02/10 23:01:09;;;;;;;3.27;1.30;;;4.90;99.90;;;;;;4999524;28;20183;-79
2022/02/10 23:03:38;;;;;;;1.57;1.13;;;4.90;99.90;;;;;;5000760;28;20195;-79
2022/02/10 23:06:06;;;;;;;1.47;1.20;;;5.00;99.90;;;;;;5001544;28;20185;-79
2022/02/10 23:08:32;;;;;;;1.20;1.10;;;4.90;99.90;;;;;;5001209;28;20215;-80
2022/02/10 23:10:57;;;;;;;1.80;1.20;;;4.80;99.90;;;;;;4999190;28;20567;-79
2022/02/10 23:13:28;;;;;;;1.63;1.30;;;4.80;99.90;;;;;;5016989;28;20215;-79
2022/02/10 23:15:58;;;;;;;2.40;1.40;;;4.90;99.90;;;;;;5015119;28;20246;-78
2022/02/10 23:18:27;;;;;;;1.63;1.27;;;4.80;99.90;;;;;;5001255;28;20612;-79
2022/02/10 23:20:55;;;;;;;3.20;1.60;;;4.80;99.90;;;;;;5016931;28;20195;-79
2022/02/10 23:23:22;;;;;;;2.43;1.53;;;4.80;99.90;;;;;;4998483;28;20219;-80
2022/02/10 23:25:51;;;;;;;1.70;1.40;;;4.80;99.90;;;;;;4997731;28;20638;-78
2022/02/10 23:28:23;;;;;;;1.90;1.53;;;4.80;99.90;;;;;;5015889;28;20207;-79
2022/02/10 23:30:51;;;;;;;1.90;1.63;;;4.80;99.90;;;;;;5007320;28;20679;-79
2022/02/10 23:33:22;;;;;;;2.47;1.93;;;4.80;99.90;;;;;;5006830;28;20179;-80
2022/02/10 23:38:38;;;;;;;2.50;1.90;;;4.80;99.90;;;;;;4999915;28;20203;-77
2022/02/10 23:43:30;;;;;;;2.10;1.90;;;4.80;99.90;;;;;;5001497;28;20211;-78
2022/02/10 23:45:56;;;;;;;4.17;2.27;;;4.80;99.90;;;;;;4999289;28;20214;-78
2022/02/10 23:48:21;;;;;;;3.17;2.17;;;4.80;99.90;;;;;;5015488;28;20203;-78
2022/02/10 23:50:47;;;;;;;3.33;1.90;;;4.70;99.90;;;;;;5000044;28;20185;-78
2022/02/10 23:53:13;;;;;;;3.43;2.10;;;4.70;99.90;;;;;;5014536;28;20183;-78
2022/02/10 23:55:40;;;;;;;3.37;2.00;;;4.70;99.90;;;;;;5015104;28;20188;-78
